createdAt,value
2018-12-09T00:00:50.942Z,99274.94
2018-12-09T00:03:19.907Z,99280.34
2018-12-09T00:05:48.936Z,99270.63
2018-12-09T00:08:17.861Z,99269.95
2018-12-09T00:10:46.785Z,99277.47
2018-12-09T00:13:15.800Z,99275.07
2018-12-09T00:15:44.704Z,99269.86
2018-12-09T00:18:13.579Z,99286.84
2018-12-09T00:20:42.482Z,99281.47
2018-12-09T00:23:11.392Z,99285.73
2018-12-09T00:25:40.288Z,99275.97
2018-12-09T00:28:09.200Z,99269.11
2018-12-09T00:30:38.230Z,99274.56
2018-12-09T00:33:07.289Z,99277.30
2018-12-09T00:35:36.322Z,99284.20
2018-12-09T00:38:05.197Z,99265.36
2018-12-09T00:40:34.102Z,99270.08
2018-12-09T00:43:04.056Z,99264.30
2018-12-09T00:45:32.972Z,99264.77
2018-12-09T00:48:01.868Z,99264.45
2018-12-09T00:50:30.989Z,99265.20
2018-12-09T00:53:00.029Z,99276.67
2018-12-09T00:55:28.973Z,99271.38
2018-12-09T00:57:58.384Z,99278.92
2018-12-09T01:00:27.309Z,99260.83
2018-12-09T01:02:56.213Z,99256.13
2018-12-09T01:05:25.119Z,99253.67
2018-12-09T01:07:54.036Z,99245.58
2018-12-09T01:10:22.950Z,99231.14
2018-12-09T01:12:52.069Z,99226.47
2018-12-09T01:15:21.015Z,99224.08
2018-12-09T01:17:50.327Z,99229.34
2018-12-09T01:20:19.273Z,99237.20
2018-12-09T01:22:48.093Z,99248.25
2018-12-09T01:25:16.977Z,99252.99
2018-12-09T01:27:45.899Z,99242.56
2018-12-09T01:30:14.897Z,99236.55
2018-12-09T01:32:44.205Z,99235.70
2018-12-09T01:35:13.133Z,99225.85
2018-12-09T01:37:42.032Z,99229.94
2018-12-09T01:40:10.934Z,99231.95
2018-12-09T01:42:39.842Z,99229.63
2018-12-09T01:45:08.779Z,99224.27
2018-12-09T01:47:38.114Z,99227.33
2018-12-09T01:50:07.168Z,99228.55
2018-12-09T01:52:36.193Z,99220.03
2018-12-09T01:55:05.172Z,99225.16
2018-12-09T01:57:34.073Z,99214.02
2018-12-09T02:00:03.254Z,99223.70
2018-12-09T02:02:32.268Z,99232.55
2018-12-09T02:05:01.254Z,99231.80
2018-12-09T02:07:30.417Z,99227.55
2018-12-09T02:09:59.548Z,99233.88
2018-12-09T02:12:28.377Z,99233.51
2018-12-09T02:14:57.496Z,99228.01
2018-12-09T02:17:26.520Z,99230.36
2018-12-09T02:19:55.868Z,99241.64
2018-12-09T02:22:24.869Z,99242.19
2018-12-09T02:24:53.905Z,99233.95
2018-12-09T02:27:22.801Z,99227.31
2018-12-09T02:29:51.693Z,99234.95
2018-12-09T02:32:20.617Z,99236.19
2018-12-09T02:34:52.237Z,99222.83
2018-12-09T02:37:21.293Z,99225.04
2018-12-09T02:39:50.838Z,99234.02
2018-12-09T02:42:19.850Z,99228.75
2018-12-09T02:44:48.777Z,99232.45
2018-12-09T02:47:17.737Z,99238.09
2018-12-09T02:49:46.644Z,99230.45
2018-12-09T02:52:15.583Z,99220.76
2018-12-09T02:54:44.583Z,99219.64
2018-12-09T02:57:13.593Z,99208.88
2018-12-09T02:59:42.424Z,99202.88
2018-12-09T03:02:11.700Z,99209.70
2018-12-09T03:04:40.752Z,99202.25
2018-12-09T03:07:09.664Z,99195.31
2018-12-09T03:09:38.548Z,99199.82
2018-12-09T03:12:07.640Z,99202.77
2018-12-09T03:14:36.599Z,99202.06
2018-12-09T03:17:05.523Z,99202.92
2018-12-09T03:19:34.453Z,99205.91
2018-12-09T03:22:03.459Z,99199.34
2018-12-09T03:24:32.696Z,99205.16
2018-12-09T03:27:01.731Z,99206.52
2018-12-09T03:29:30.761Z,99205.70
2018-12-09T03:31:59.680Z,99213.19
2018-12-09T03:34:28.636Z,99219.67
2018-12-09T03:36:57.537Z,99219.93
2018-12-09T03:39:26.491Z,99224.88
2018-12-09T03:41:55.415Z,99226.30
2018-12-09T03:44:24.312Z,99239.48
2018-12-09T03:46:53.943Z,99238.80
2018-12-09T03:49:22.961Z,99234.92
2018-12-09T03:51:51.861Z,99243.95
2018-12-09T03:54:20.772Z,99241.58
2018-12-09T03:56:49.685Z,99237.89
2018-12-09T03:59:18.674Z,99248.00
2018-12-09T04:01:47.587Z,99233.36
2018-12-09T04:04:16.538Z,99226.27
2018-12-09T04:06:45.456Z,99234.22
2018-12-09T04:09:14.842Z,99230.48
2018-12-09T04:11:43.849Z,99230.25
2018-12-09T04:14:12.795Z,99236.30
2018-12-09T04:16:41.750Z,99243.45
2018-12-09T04:19:10.665Z,99241.81
2018-12-09T04:21:39.606Z,99242.11
2018-12-09T04:24:08.429Z,99249.20
2018-12-09T04:26:37.325Z,99243.19
2018-12-09T04:29:06.238Z,99243.16
2018-12-09T04:31:35.574Z,99253.16
2018-12-09T04:34:04.580Z,99251.76
2018-12-09T04:36:33.505Z,99242.47
2018-12-09T04:39:02.556Z,99240.08
2018-12-09T04:41:31.615Z,99244.00
2018-12-09T04:44:00.424Z,99235.89
2018-12-09T04:46:29.353Z,99238.11
2018-12-09T04:48:58.441Z,99232.53
2018-12-09T04:51:37.345Z,99229.06
2018-12-09T04:54:06.338Z,99231.25
2018-12-09T04:56:35.258Z,99226.16
2018-12-09T04:59:17.477Z,99219.97
2018-12-09T05:01:46.758Z,99231.91
2018-12-09T05:04:15.910Z,99234.32
2018-12-09T05:06:44.847Z,99239.41
2018-12-09T05:09:13.857Z,99232.30
2018-12-09T05:11:42.798Z,99229.69
2018-12-09T05:14:11.734Z,99234.94
2018-12-09T05:16:40.665Z,99232.09
2018-12-09T05:19:09.649Z,99239.66
2018-12-09T05:21:38.454Z,99242.30
2018-12-09T05:24:07.798Z,99243.58
2018-12-09T05:26:36.813Z,99232.78
2018-12-09T05:29:05.735Z,99242.72
2018-12-09T05:31:34.525Z,99233.89
2018-12-09T05:34:03.453Z,99235.70
2018-12-09T05:36:32.977Z,99230.94
2018-12-09T05:39:02.025Z,99227.97
2018-12-09T05:41:31.141Z,99226.23
2018-12-09T05:44:00.053Z,99240.78
2018-12-09T05:46:28.981Z,99256.09
2018-12-09T05:48:57.867Z,99249.31
2018-12-09T05:51:26.771Z,99240.98
2018-12-09T05:53:55.597Z,99239.80
2018-12-09T05:56:24.500Z,99242.85
2018-12-09T05:58:53.840Z,99248.63
2018-12-09T06:01:22.748Z,99264.95
2018-12-09T06:03:51.717Z,99264.80
2018-12-09T06:06:20.612Z,99259.85
2018-12-09T06:08:49.519Z,99264.45
2018-12-09T06:11:18.376Z,99261.74
2018-12-09T06:13:47.289Z,99266.17
2018-12-09T06:16:16.337Z,99267.58
2018-12-09T06:18:45.361Z,99264.07
2018-12-09T06:21:14.330Z,99267.48
2018-12-09T06:23:43.141Z,99262.19
2018-12-09T06:26:12.036Z,99260.62
2018-12-09T06:28:40.933Z,99256.84
2018-12-09T06:31:09.981Z,99259.59
2018-12-09T06:33:39.201Z,99257.37
2018-12-09T06:36:08.042Z,99256.40
2018-12-09T06:38:36.956Z,99263.58
2018-12-09T06:41:05.887Z,99256.80
2018-12-09T06:43:34.657Z,99260.53
2018-12-09T06:46:03.577Z,99260.56
2018-12-09T06:48:32.478Z,99258.49
2018-12-09T06:51:01.386Z,99260.13
2018-12-09T06:53:30.491Z,99253.80
2018-12-09T06:55:59.318Z,99263.66
2018-12-09T06:58:28.245Z,99266.88
2018-12-09T07:00:57.275Z,99264.02
2018-12-09T07:03:26.406Z,99261.30
2018-12-09T07:05:55.309Z,99252.69
2018-12-09T07:08:24.530Z,99255.54
2018-12-09T07:10:53.425Z,99261.25
2018-12-09T07:13:22.268Z,99253.20
2018-12-09T07:15:51.604Z,99257.77
2018-12-09T07:18:20.608Z,99260.55
2018-12-09T07:20:49.853Z,99254.50
2018-12-09T07:23:18.749Z,99250.34
2018-12-09T07:25:47.702Z,99245.52
2018-12-09T07:28:16.733Z,99249.41
2018-12-09T07:30:45.645Z,99253.44
2018-12-09T07:33:15.142Z,99253.41
2018-12-09T07:35:43.980Z,99252.61
2018-12-09T07:38:12.797Z,99248.25
2018-12-09T07:40:41.715Z,99245.77
2018-12-09T07:43:10.645Z,99241.87
2018-12-09T07:45:39.573Z,99247.73
2018-12-09T07:48:08.570Z,99247.16
2018-12-09T07:50:37.463Z,99237.88
2018-12-09T07:53:06.549Z,99243.44
2018-12-09T07:55:35.328Z,99238.13
2018-12-09T07:58:04.233Z,99238.08
2018-12-09T08:00:33.169Z,99236.27
2018-12-09T08:03:02.105Z,99231.97
2018-12-09T08:05:31.518Z,99235.02
2018-12-09T08:08:00.469Z,99231.66
2018-12-09T08:10:29.417Z,99231.03
2018-12-09T08:12:58.326Z,99226.25
2018-12-09T08:15:27.249Z,99222.97
2018-12-09T08:17:56.249Z,99217.19
2018-12-09T08:20:25.156Z,99206.98
2018-12-09T08:22:54.050Z,99213.42
2018-12-09T08:25:23.114Z,99209.08
2018-12-09T08:27:52.132Z,99208.65
2018-12-09T08:30:21.045Z,99212.91
2018-12-09T08:32:49.953Z,99203.71
2018-12-09T08:35:18.877Z,99200.69
2018-12-09T08:37:47.662Z,99197.68
2018-12-09T08:40:16.588Z,99197.66
2018-12-09T08:42:45.595Z,99198.48
2018-12-09T08:45:14.505Z,99191.30
2018-12-09T08:47:43.531Z,99185.52
2018-12-09T08:50:12.362Z,99178.58
2018-12-09T08:52:41.309Z,99183.98
2018-12-09T08:55:10.357Z,99178.52
2018-12-09T08:57:39.309Z,99174.81
2018-12-09T09:00:08.248Z,99180.48
2018-12-09T09:02:37.615Z,99179.06
2018-12-09T09:05:06.906Z,99174.06
2018-12-09T09:07:35.798Z,99174.34
2018-12-09T09:10:05.429Z,99171.05
2018-12-09T09:12:34.392Z,99159.08
2018-12-09T09:15:03.453Z,99155.87
2018-12-09T09:17:32.438Z,99159.11
2018-12-09T09:20:01.267Z,99155.20
2018-12-09T09:22:30.978Z,99148.59
2018-12-09T09:24:59.878Z,99150.77
2018-12-09T09:27:28.789Z,99145.42
2018-12-09T09:29:57.697Z,99141.32
2018-12-09T09:32:26.525Z,99128.13
2018-12-09T09:34:55.460Z,99122.08
2018-12-09T09:37:24.474Z,99118.41
2018-12-09T09:39:53.383Z,99114.69
2018-12-09T09:42:22.373Z,99111.36
2018-12-09T09:44:51.297Z,99100.08
2018-12-09T09:47:20.148Z,99094.25
2018-12-09T09:49:49.168Z,99084.55
2018-12-09T09:52:18.063Z,99080.70
2018-12-09T09:54:47.066Z,99075.59
2018-12-09T09:57:16.064Z,99073.95
2018-12-09T09:59:44.957Z,99074.70
2018-12-09T10:02:13.877Z,99070.98
2018-12-09T10:04:42.673Z,99070.50
2018-12-09T10:07:11.673Z,99067.13
2018-12-09T10:09:40.682Z,99055.29
2018-12-09T10:12:09.502Z,99053.47
2018-12-09T10:14:38.384Z,99048.22
2018-12-09T10:17:07.405Z,99042.41
2018-12-09T10:19:36.304Z,99040.59
2018-12-09T10:22:05.233Z,99034.63
2018-12-09T10:24:40.806Z,99038.09
2018-12-09T10:27:09.717Z,99041.30
2018-12-09T10:29:39.016Z,99033.22
2018-12-09T10:32:07.828Z,99026.09
2018-12-09T10:34:38.944Z,99014.50
2018-12-09T10:37:07.681Z,99013.75
2018-12-09T10:39:36.482Z,99019.11
2018-12-09T10:42:05.387Z,99006.05
2018-12-09T10:44:34.253Z,99009.73
2018-12-09T10:47:03.356Z,99003.98
2018-12-09T10:49:32.385Z,99006.05
2018-12-09T10:52:01.313Z,99003.04
2018-12-09T10:54:30.225Z,99007.59
2018-12-09T10:56:59.324Z,99006.14
2018-12-09T10:59:28.109Z,99003.61
2018-12-09T11:02:01.493Z,99003.66
2018-12-09T11:04:30.485Z,99003.13
2018-12-09T11:06:59.372Z,98999.70
2018-12-09T11:09:28.284Z,99001.25
2018-12-09T11:11:57.313Z,98996.23
2018-12-09T11:14:26.122Z,98999.30
2018-12-09T11:16:55.056Z,98990.60
2018-12-09T11:19:23.954Z,98994.57
2018-12-09T11:21:52.861Z,98988.36
2018-12-09T11:24:21.690Z,98988.16
2018-12-09T11:26:50.472Z,98991.05
2018-12-09T11:29:19.378Z,98987.25
2018-12-09T11:31:48.175Z,98987.91
2018-12-09T11:34:17.073Z,98987.05
2018-12-09T11:36:45.965Z,98994.76
2018-12-09T11:39:14.846Z,98986.31
2018-12-09T11:41:43.742Z,98989.25
2018-12-09T11:44:12.601Z,98981.81
2018-12-09T11:46:41.624Z,98983.03
2018-12-09T11:49:10.587Z,98976.91
2018-12-09T11:51:39.661Z,98972.53
2018-12-09T11:54:08.593Z,98960.35
2018-12-09T11:56:37.503Z,98959.73
2018-12-09T11:59:06.394Z,98962.27
2018-12-09T12:01:35.301Z,98955.36
2018-12-09T12:04:04.134Z,98953.55
2018-12-09T12:06:33.061Z,98949.77
2018-12-09T12:09:02.076Z,98943.02
2018-12-09T12:11:31.604Z,98941.80
2018-12-09T12:14:00.518Z,98936.65
2018-12-09T12:16:29.337Z,98928.80
2018-12-09T12:18:58.255Z,98928.63
2018-12-09T12:21:27.152Z,98923.58
2018-12-09T12:23:56.045Z,98921.02
2018-12-09T12:26:24.873Z,98924.03
2018-12-09T12:28:53.991Z,98919.25
2018-12-09T12:31:22.778Z,98927.09
2018-12-09T12:33:51.599Z,98925.79
2018-12-09T12:36:20.611Z,98921.33
2018-12-09T12:38:50.570Z,98920.28
2018-12-09T12:41:21.417Z,98923.89
2018-12-09T12:43:51.017Z,98933.36
2018-12-09T12:46:20.049Z,98925.79
2018-12-09T12:48:49.262Z,98936.56
2018-12-09T12:51:18.338Z,98939.90
2018-12-09T12:53:47.374Z,98931.25
2018-12-09T12:56:16.230Z,98928.09
2018-12-09T12:58:45.149Z,98931.16
2018-12-09T13:01:14.761Z,98931.77
2018-12-09T13:03:43.566Z,98932.33
2018-12-09T13:06:13.430Z,98941.61
2018-12-09T13:08:42.285Z,98945.53
2018-12-09T13:11:11.291Z,98944.23
2018-12-09T13:13:40.133Z,98932.31
2018-12-09T13:16:11.945Z,98930.28
2018-12-09T13:18:40.958Z,98927.44
2018-12-09T13:21:09.784Z,98930.83
2018-12-09T13:23:38.696Z,98928.80
2018-12-09T13:26:07.593Z,98925.41
2018-12-09T13:28:36.512Z,98922.80
2018-12-09T13:31:05.333Z,98924.38
2018-12-09T13:33:34.230Z,98921.36
2018-12-09T13:36:03.982Z,98916.21
2018-12-09T13:38:32.904Z,98923.11
2018-12-09T13:41:01.843Z,98920.45
2018-12-09T13:43:30.773Z,98917.34
2018-12-09T13:45:59.685Z,98912.66
2018-12-09T13:48:28.686Z,98906.52
2018-12-09T13:50:57.622Z,98908.92
2018-12-09T13:53:26.733Z,98907.08
2018-12-09T13:55:55.653Z,98904.69
2018-12-09T13:58:24.559Z,98905.59
2018-12-09T14:00:53.529Z,98904.98
2018-12-09T14:03:22.429Z,98902.38
2018-12-09T14:05:51.351Z,98902.50
2018-12-09T14:08:20.257Z,98897.65
2018-12-09T14:10:49.257Z,98900.11
2018-12-09T14:13:18.150Z,98906.11
2018-12-09T14:15:47.054Z,98903.95
2018-12-09T14:18:16.097Z,98901.09
2018-12-09T14:20:44.911Z,98901.63
2018-12-09T14:23:13.811Z,98901.63
2018-12-09T14:25:42.733Z,98893.48
2018-12-09T14:28:11.649Z,98897.77
2018-12-09T14:30:40.605Z,98898.89
2018-12-09T14:33:09.649Z,98897.21
2018-12-09T14:35:38.546Z,98896.76
2018-12-09T14:38:07.362Z,98896.49
2018-12-09T14:40:36.378Z,98896.17
2018-12-09T14:43:05.272Z,98887.87
2018-12-09T14:45:35.182Z,98881.43
2018-12-09T14:48:04.185Z,98875.34
2018-12-09T14:50:33.075Z,98871.97
2018-12-09T14:53:01.972Z,98872.05
2018-12-09T14:55:31.108Z,98882.09
2018-12-09T14:58:00.030Z,98887.09
2018-12-09T15:00:28.969Z,98880.69
2018-12-09T15:02:57.752Z,98871.99
2018-12-09T15:05:26.562Z,98873.31
2018-12-09T15:07:55.466Z,98871.16
2018-12-09T15:10:24.294Z,98869.48
2018-12-09T15:12:53.209Z,98877.69
2018-12-09T15:15:22.137Z,98876.34
2018-12-09T15:17:51.133Z,98873.20
2018-12-09T15:20:20.148Z,98883.40
2018-12-09T15:22:49.158Z,98881.57
2018-12-09T15:25:18.049Z,98884.33
2018-12-09T15:27:46.961Z,98888.82
2018-12-09T15:30:15.908Z,98879.23
2018-12-09T15:32:44.797Z,98869.45
2018-12-09T15:35:13.781Z,98864.36
2018-12-09T15:37:42.790Z,98870.19
2018-12-09T15:40:11.716Z,98871.23
2018-12-09T15:42:40.713Z,98875.00
2018-12-09T15:45:09.766Z,98879.05
2018-12-09T15:47:38.768Z,98883.37
2018-12-09T15:50:09.036Z,98884.73
2018-12-09T15:52:37.973Z,98881.84
2018-12-09T15:55:07.050Z,98888.48
2018-12-09T15:57:35.973Z,98892.45
2018-12-09T16:00:05.529Z,98885.94
2018-12-09T16:02:34.571Z,98881.55
2018-12-09T16:05:03.691Z,98880.84
2018-12-09T16:07:32.690Z,98883.45
2018-12-09T16:10:01.733Z,98871.36
2018-12-09T16:12:30.608Z,98866.00
2018-12-09T16:14:59.509Z,98867.16
2018-12-09T16:17:28.462Z,98870.98
2018-12-09T16:19:57.466Z,98874.00
2018-12-09T16:22:26.236Z,98872.58
2018-12-09T16:24:55.272Z,98865.66
2018-12-09T16:27:24.185Z,98869.02
2018-12-09T16:29:53.012Z,98865.25
2018-12-09T16:32:21.936Z,98868.81
2018-12-09T16:34:50.850Z,98871.61
2018-12-09T16:37:19.778Z,98863.13
2018-12-09T16:39:48.910Z,98865.59
2018-12-09T16:42:17.815Z,98876.63
2018-12-09T16:44:46.712Z,98875.17
2018-12-09T16:47:15.554Z,98873.87
2018-12-09T16:49:44.391Z,98869.31
2018-12-09T16:52:13.480Z,98874.44
2018-12-09T16:54:42.378Z,98873.66
2018-12-09T16:57:11.405Z,98868.62
2018-12-09T16:59:40.289Z,98874.37
2018-12-09T17:02:09.202Z,98874.84
2018-12-09T17:04:38.217Z,98881.48
2018-12-09T17:07:06.995Z,98886.30
2018-12-09T17:09:35.915Z,98888.60
2018-12-09T17:12:05.949Z,98883.47
2018-12-09T17:14:34.798Z,98880.08
2018-12-09T17:17:03.734Z,98884.70
2018-12-09T17:19:32.746Z,98883.98
2018-12-09T17:22:02.738Z,98886.15
2018-12-09T17:24:31.653Z,98893.63
2018-12-09T17:27:00.651Z,98898.56
2018-12-09T17:29:29.584Z,98885.41
2018-12-09T17:31:58.503Z,98880.45
2018-12-09T17:34:27.534Z,98881.31
2018-12-09T17:36:56.449Z,98873.69
2018-12-09T17:39:25.452Z,98868.47
2018-12-09T17:41:54.397Z,98879.17
2018-12-09T17:44:24.282Z,98881.86
2018-12-09T17:46:53.440Z,98883.06
2018-12-09T17:49:22.493Z,98879.58
2018-12-09T17:51:52.022Z,98877.33
2018-12-09T17:54:21.344Z,98877.64
2018-12-09T17:56:50.901Z,98877.55
2018-12-09T17:59:19.833Z,98876.34
2018-12-09T18:01:49.710Z,98877.65
2018-12-09T18:04:18.537Z,98883.03
2018-12-09T18:06:47.633Z,98876.85
2018-12-09T18:09:17.085Z,98869.42
2018-12-09T18:11:46.008Z,98876.85
2018-12-09T18:14:15.067Z,98874.25
2018-12-09T18:16:44.114Z,98877.64
2018-12-09T18:19:14.173Z,98867.63
2018-12-09T18:21:43.031Z,98863.98
2018-12-09T18:24:11.965Z,98861.29
2018-12-09T18:26:40.789Z,98860.33
2018-12-09T18:29:10.461Z,98858.94
2018-12-09T18:31:40.145Z,98856.56
2018-12-09T18:34:10.083Z,98853.16
2018-12-09T18:36:39.141Z,98856.20
2018-12-09T18:39:08.805Z,98855.00
2018-12-09T18:41:37.617Z,98851.23
2018-12-09T18:44:06.926Z,98847.11
2018-12-09T18:46:35.841Z,98848.90
2018-12-09T18:49:04.767Z,98840.80
2018-12-09T18:51:33.690Z,98842.84
2018-12-09T18:54:02.512Z,98843.03
2018-12-09T18:56:31.670Z,98838.38
2018-12-09T18:59:00.660Z,98837.72
2018-12-09T19:01:30.292Z,98839.91
2018-12-09T19:03:59.228Z,98843.55
2018-12-09T19:06:28.163Z,98856.29
2018-12-09T19:08:57.146Z,98857.20
2018-12-09T19:11:26.224Z,98861.23
2018-12-09T19:13:55.903Z,98865.14
2018-12-09T19:16:25.871Z,98868.00
2018-12-09T19:18:54.773Z,98869.29
2018-12-09T19:21:23.731Z,98865.70
2018-12-09T19:23:52.622Z,98865.76
2018-12-09T19:26:21.531Z,98874.17
2018-12-09T19:28:50.441Z,98879.09
2018-12-09T19:31:19.340Z,98876.41
2018-12-09T19:33:48.252Z,98878.16
2018-12-09T19:36:17.173Z,98881.55
2018-12-09T19:38:46.100Z,98883.89
2018-12-09T19:41:15.055Z,98881.04
2018-12-09T19:43:44.161Z,98878.80
2018-12-09T19:46:14.161Z,98882.52
2018-12-09T19:48:43.057Z,98871.85
2018-12-09T19:51:12.035Z,98864.08
2018-12-09T19:53:40.898Z,98873.81
2018-12-09T19:56:09.930Z,98879.18
2018-12-09T19:58:38.874Z,98867.73
2018-12-09T20:01:07.916Z,98866.64
2018-12-09T20:03:36.737Z,98862.03
2018-12-09T20:06:05.593Z,98861.30
2018-12-09T20:08:34.500Z,98863.38
2018-12-09T20:11:03.354Z,98852.52
2018-12-09T20:13:32.305Z,98854.53
2018-12-09T20:16:01.229Z,98853.23
2018-12-09T20:18:30.139Z,98851.20
2018-12-09T20:20:58.984Z,98847.46
2018-12-09T20:23:27.973Z,98837.73
2018-12-09T20:25:56.803Z,98822.59
2018-12-09T20:28:25.601Z,98831.16
2018-12-09T20:30:54.401Z,98828.52
2018-12-09T20:33:23.334Z,98827.28
2018-12-09T20:35:52.242Z,98836.72
2018-12-09T20:38:22.783Z,98839.67
2018-12-09T20:40:51.569Z,98846.66
2018-12-09T20:43:20.776Z,98851.58
2018-12-09T20:45:49.688Z,98862.41
2018-12-09T20:48:18.574Z,98862.45
2018-12-09T20:50:47.417Z,98858.78
2018-12-09T20:53:16.454Z,98861.04
2018-12-09T20:55:45.349Z,98864.92
2018-12-09T20:58:14.298Z,98871.03
2018-12-09T21:00:43.225Z,98868.09
2018-12-09T21:03:12.049Z,98865.34
2018-12-09T21:05:40.884Z,98868.56
2018-12-09T21:08:09.866Z,98875.63
2018-12-09T21:10:38.750Z,98876.01
2018-12-09T21:13:07.653Z,98875.66
2018-12-09T21:15:36.562Z,98868.23
2018-12-09T21:18:05.486Z,98872.02
2018-12-09T21:20:34.420Z,98862.27
2018-12-09T21:23:03.447Z,98862.81
2018-12-09T21:25:32.360Z,98854.02
2018-12-09T21:28:01.169Z,98851.37
2018-12-09T21:30:30.079Z,98859.67
2018-12-09T21:32:59.005Z,98856.64
2018-12-09T21:35:29.266Z,98853.95
2018-12-09T21:37:58.278Z,98850.78
2018-12-09T21:40:27.096Z,98847.84
2018-12-09T21:42:56.004Z,98844.09
2018-12-09T21:45:25.064Z,98842.40
2018-12-09T21:47:54.063Z,98837.35
2018-12-09T21:50:24.005Z,98839.58
2018-12-09T21:52:53.025Z,98833.19
2018-12-09T21:55:22.127Z,98835.36
2018-12-09T21:57:51.123Z,98824.63
2018-12-09T22:00:20.037Z,98834.40
2018-12-09T22:02:48.954Z,98831.16
2018-12-09T22:05:17.865Z,98824.10
2018-12-09T22:07:46.805Z,98832.74
2018-12-09T22:10:15.857Z,98828.70
2018-12-09T22:12:44.901Z,98826.48
2018-12-09T22:15:13.800Z,98819.03
2018-12-09T22:17:42.776Z,98806.22
2018-12-09T22:20:11.603Z,98811.95
2018-12-09T22:22:40.520Z,98803.77
2018-12-09T22:25:09.444Z,98797.98
2018-12-09T22:27:38.345Z,98794.81
2018-12-09T22:30:07.529Z,98790.81
2018-12-09T22:32:36.440Z,98790.17
2018-12-09T22:35:05.917Z,98789.75
2018-12-09T22:37:34.808Z,98788.94
2018-12-09T22:40:04.417Z,98800.22
2018-12-09T22:42:33.226Z,98804.56
2018-12-09T22:45:02.106Z,98812.72
2018-12-09T22:47:31.192Z,98816.28
2018-12-09T22:50:00.137Z,98818.91
2018-12-09T22:52:29.025Z,98817.03
2018-12-09T22:54:57.837Z,98807.85
2018-12-09T22:57:26.869Z,98807.23
2018-12-09T22:59:55.888Z,98804.54
2018-12-09T23:02:30.354Z,98798.27
2018-12-09T23:04:59.274Z,98800.67
2018-12-09T23:07:33.626Z,98800.08
2018-12-09T23:10:02.738Z,98805.08
2018-12-09T23:12:31.727Z,98794.99
2018-12-09T23:15:00.625Z,98799.61
2018-12-09T23:17:29.650Z,98801.79
2018-12-09T23:19:58.548Z,98793.64
2018-12-09T23:22:27.470Z,98793.27
2018-12-09T23:24:56.274Z,98784.18
2018-12-09T23:27:25.461Z,98784.39
2018-12-09T23:29:54.348Z,98795.28
2018-12-09T23:32:23.281Z,98800.44
2018-12-09T23:34:52.280Z,98793.86
2018-12-09T23:37:21.068Z,98798.22
2018-12-09T23:39:49.963Z,98795.26
2018-12-09T23:42:18.849Z,98789.50
2018-12-09T23:44:47.784Z,98785.30
2018-12-09T23:47:16.722Z,98785.17
2018-12-09T23:49:45.617Z,98780.13
2018-12-09T23:52:14.961Z,98785.44
2018-12-09T23:54:43.755Z,98783.38
2018-12-09T23:57:12.598Z,98779.78
2018-12-09T23:59:41.498Z,98785.37
